sensor_id;sensor_type;location;lat;lon;timestamp;P1;durP1;ratioP1;P2;durP2;ratioP2
39156;SDS011;24889;42.424;25.604;2022-09-09T00:00:12;5.43;;;3.17;;
39156;SDS011;24889;42.424;25.604;2022-09-09T00:02:40;5.13;;;2.95;;
39156;SDS011;24889;42.424;25.604;2022-09-09T00:05:23;6.82;;;3.38;;
39156;SDS011;24889;42.424;25.604;2022-09-09T00:07:53;9.13;;;4.07;;
39156;SDS011;24889;42.424;25.604;2022-09-09T00:15:40;5.00;;;3.28;;
39156;SDS011;24889;42.424;25.604;2022-09-09T00:18:11;4.97;;;2.92;;
39156;SDS011;24889;42.424;25.604;2022-09-09T00:20:59;7.05;;;3.30;;
39156;SDS011;24889;42.424;25.604;2022-09-09T00:23:32;3.80;;;2.70;;
39156;SDS011;24889;42.424;25.604;2022-09-09T00:28:57;4.50;;;3.40;;
39156;SDS011;24889;42.424;25.604;2022-09-09T00:31:30;4.90;;;2.92;;
39156;SDS011;24889;42.424;25.604;2022-09-09T00:34:03;7.68;;;3.80;;
39156;SDS011;24889;42.424;25.604;2022-09-09T00:36:35;6.15;;;3.15;;
39156;SDS011;24889;42.424;25.604;2022-09-09T00:39:03;10.35;;;3.45;;
39156;SDS011;24889;42.424;25.604;2022-09-09T00:41:38;5.22;;;3.05;;
39156;SDS011;24889;42.424;25.604;2022-09-09T00:44:30;10.98;;;3.13;;
39156;SDS011;24889;42.424;25.604;2022-09-09T00:47:12;7.18;;;2.88;;
39156;SDS011;24889;42.424;25.604;2022-09-09T00:50:20;5.50;;;3.33;;
39156;SDS011;24889;42.424;25.604;2022-09-09T00:55:45;6.85;;;3.30;;
39156;SDS011;24889;42.424;25.604;2022-09-09T00:58:17;5.80;;;3.30;;
39156;SDS011;24889;42.424;25.604;2022-09-09T01:03:29;4.10;;;2.80;;
39156;SDS011;24889;42.424;25.604;2022-09-09T01:12:02;5.60;;;2.95;;
39156;SDS011;24889;42.424;25.604;2022-09-09T01:17:07;5.22;;;2.83;;
39156;SDS011;24889;42.424;25.604;2022-09-09T01:25:13;5.68;;;3.22;;
39156;SDS011;24889;42.424;25.604;2022-09-09T01:27:35;4.10;;;3.05;;
39156;SDS011;24889;42.424;25.604;2022-09-09T01:30:05;6.47;;;3.45;;
39156;SDS011;24889;42.424;25.604;2022-09-09T01:32:42;5.68;;;3.08;;
39156;SDS011;24889;42.424;25.604;2022-09-09T01:35:20;6.70;;;3.03;;
39156;SDS011;24889;42.424;25.604;2022-09-09T01:37:48;8.43;;;2.90;;
39156;SDS011;24889;42.424;25.604;2022-09-09T01:40:14;4.87;;;2.87;;
39156;SDS011;24889;42.424;25.604;2022-09-09T01:42:39;5.93;;;2.80;;
39156;SDS011;24889;42.424;25.604;2022-09-09T01:45:05;4.30;;;3.20;;
39156;SDS011;24889;42.424;25.604;2022-09-09T01:47:31;6.22;;;3.30;;
39156;SDS011;24889;42.424;25.604;2022-09-09T01:49:57;7.67;;;3.13;;
39156;SDS011;24889;42.424;25.604;2022-09-09T01:52:24;8.45;;;3.10;;
39156;SDS011;24889;42.424;25.604;2022-09-09T01:54:50;8.25;;;3.40;;
39156;SDS011;24889;42.424;25.604;2022-09-09T02:00:04;4.30;;;2.90;;
39156;SDS011;24889;42.424;25.604;2022-09-09T02:02:39;4.43;;;2.80;;
39156;SDS011;24889;42.424;25.604;2022-09-09T02:05:58;6.40;;;2.83;;
39156;SDS011;24889;42.424;25.604;2022-09-09T02:11:13;6.45;;;3.42;;
39156;SDS011;24889;42.424;25.604;2022-09-09T02:13:41;8.17;;;2.70;;
39156;SDS011;24889;42.424;25.604;2022-09-09T02:21:38;7.07;;;2.90;;
39156;SDS011;24889;42.424;25.604;2022-09-09T02:24:07;5.93;;;3.45;;
39156;SDS011;24889;42.424;25.604;2022-09-09T02:26:35;8.57;;;3.08;;
39156;SDS011;24889;42.424;25.604;2022-09-09T02:29:07;6.60;;;2.90;;
39156;SDS011;24889;42.424;25.604;2022-09-09T02:31:37;4.93;;;2.67;;
39156;SDS011;24889;42.424;25.604;2022-09-09T02:34:05;6.85;;;2.85;;
39156;SDS011;24889;42.424;25.604;2022-09-09T02:36:35;5.75;;;2.50;;
39156;SDS011;24889;42.424;25.604;2022-09-09T02:39:05;8.13;;;3.33;;
39156;SDS011;24889;42.424;25.604;2022-09-09T02:41:35;6.32;;;2.67;;
39156;SDS011;24889;42.424;25.604;2022-09-09T02:44:16;4.55;;;2.75;;
39156;SDS011;24889;42.424;25.604;2022-09-09T02:49:27;4.40;;;2.53;;
39156;SDS011;24889;42.424;25.604;2022-09-09T02:52:13;7.43;;;3.47;;
39156;SDS011;24889;42.424;25.604;2022-09-09T02:54:43;6.43;;;3.13;;
39156;SDS011;24889;42.424;25.604;2022-09-09T02:59:38;9.35;;;3.67;;
39156;SDS011;24889;42.424;25.604;2022-09-09T03:02:05;6.85;;;3.40;;
39156;SDS011;24889;42.424;25.604;2022-09-09T03:04:31;5.03;;;2.83;;
39156;SDS011;24889;42.424;25.604;2022-09-09T03:06:57;6.83;;;2.60;;
39156;SDS011;24889;42.424;25.604;2022-09-09T03:09:23;8.63;;;3.05;;
39156;SDS011;24889;42.424;25.604;2022-09-09T03:11:49;7.28;;;2.78;;
39156;SDS011;24889;42.424;25.604;2022-09-09T03:14:15;6.65;;;3.22;;
39156;SDS011;24889;42.424;25.604;2022-09-09T03:19:08;8.27;;;3.05;;
39156;SDS011;24889;42.424;25.604;2022-09-09T03:21:33;4.43;;;2.47;;
39156;SDS011;24889;42.424;25.604;2022-09-09T03:23:59;6.35;;;2.85;;
39156;SDS011;24889;42.424;25.604;2022-09-09T03:26:25;4.78;;;3.22;;
39156;SDS011;24889;42.424;25.604;2022-09-09T03:28:50;5.80;;;3.00;;
39156;SDS011;24889;42.424;25.604;2022-09-09T03:31:16;5.43;;;3.00;;
39156;SDS011;24889;42.424;25.604;2022-09-09T03:33:43;7.78;;;3.80;;
39156;SDS011;24889;42.424;25.604;2022-09-09T03:36:08;5.73;;;3.63;;
39156;SDS011;24889;42.424;25.604;2022-09-09T03:38:34;9.38;;;3.80;;
39156;SDS011;24889;42.424;25.604;2022-09-09T03:41:00;11.40;;;4.13;;
39156;SDS011;24889;42.424;25.604;2022-09-09T03:43:27;18.60;;;4.93;;
39156;SDS011;24889;42.424;25.604;2022-09-09T03:45:53;8.43;;;3.53;;
39156;SDS011;24889;42.424;25.604;2022-09-09T03:48:22;5.15;;;3.35;;
39156;SDS011;24889;42.424;25.604;2022-09-09T03:50:49;5.35;;;3.65;;
39156;SDS011;24889;42.424;25.604;2022-09-09T03:53:17;9.82;;;3.65;;
39156;SDS011;24889;42.424;25.604;2022-09-09T03:55:44;10.77;;;3.53;;
39156;SDS011;24889;42.424;25.604;2022-09-09T03:58:12;7.13;;;3.63;;
39156;SDS011;24889;42.424;25.604;2022-09-09T04:00:40;7.45;;;3.72;;
39156;SDS011;24889;42.424;25.604;2022-09-09T04:03:10;10.48;;;3.30;;
39156;SDS011;24889;42.424;25.604;2022-09-09T04:05:36;6.07;;;3.35;;
39156;SDS011;24889;42.424;25.604;2022-09-09T04:08:07;12.88;;;3.92;;
39156;SDS011;24889;42.424;25.604;2022-09-09T04:10:33;4.63;;;3.20;;
39156;SDS011;24889;42.424;25.604;2022-09-09T04:13:02;6.90;;;3.13;;
39156;SDS011;24889;42.424;25.604;2022-09-09T04:17:54;5.78;;;3.25;;
39156;SDS011;24889;42.424;25.604;2022-09-09T04:20:19;6.37;;;4.03;;
39156;SDS011;24889;42.424;25.604;2022-09-09T04:22:44;7.90;;;3.33;;
39156;SDS011;24889;42.424;25.604;2022-09-09T04:25:10;15.23;;;4.23;;
39156;SDS011;24889;42.424;25.604;2022-09-09T04:27:35;6.20;;;3.23;;
39156;SDS011;24889;42.424;25.604;2022-09-09T04:30:01;17.73;;;3.97;;
39156;SDS011;24889;42.424;25.604;2022-09-09T04:32:27;9.48;;;3.47;;
39156;SDS011;24889;42.424;25.604;2022-09-09T04:34:52;6.43;;;3.20;;
39156;SDS011;24889;42.424;25.604;2022-09-09T04:37:18;6.32;;;3.30;;
39156;SDS011;24889;42.424;25.604;2022-09-09T04:39:43;6.88;;;2.70;;
39156;SDS011;24889;42.424;25.604;2022-09-09T04:42:10;9.30;;;3.15;;
39156;SDS011;24889;42.424;25.604;2022-09-09T04:44:37;5.93;;;3.00;;
39156;SDS011;24889;42.424;25.604;2022-09-09T04:47:03;8.37;;;3.33;;
39156;SDS011;24889;42.424;25.604;2022-09-09T04:49:28;8.50;;;3.10;;
39156;SDS011;24889;42.424;25.604;2022-09-09T04:51:56;6.35;;;3.08;;
39156;SDS011;24889;42.424;25.604;2022-09-09T04:54:22;8.85;;;3.40;;
39156;SDS011;24889;42.424;25.604;2022-09-09T04:56:49;12.52;;;4.25;;
39156;SDS011;24889;42.424;25.604;2022-09-09T04:59:15;10.88;;;3.10;;
39156;SDS011;24889;42.424;25.604;2022-09-09T05:01:41;12.70;;;3.88;;
39156;SDS011;24889;42.424;25.604;2022-09-09T05:06:33;11.73;;;3.70;;
39156;SDS011;24889;42.424;25.604;2022-09-09T05:09:01;7.97;;;3.50;;
39156;SDS011;24889;42.424;25.604;2022-09-09T05:11:28;8.60;;;3.35;;
39156;SDS011;24889;42.424;25.604;2022-09-09T05:13:55;7.95;;;3.35;;
39156;SDS011;24889;42.424;25.604;2022-09-09T05:16:24;10.35;;;3.88;;
39156;SDS011;24889;42.424;25.604;2022-09-09T05:21:19;15.25;;;5.82;;
39156;SDS011;24889;42.424;25.604;2022-09-09T05:23:46;9.02;;;6.47;;
39156;SDS011;24889;42.424;25.604;2022-09-09T05:28:39;8.27;;;4.57;;
39156;SDS011;24889;42.424;25.604;2022-09-09T05:33:36;7.40;;;4.78;;
39156;SDS011;24889;42.424;25.604;2022-09-09T05:36:06;14.05;;;4.60;;
39156;SDS011;24889;42.424;25.604;2022-09-09T05:38:33;12.85;;;4.07;;
39156;SDS011;24889;42.424;25.604;2022-09-09T05:41:00;6.20;;;3.53;;
39156;SDS011;24889;42.424;25.604;2022-09-09T05:43:27;6.93;;;4.10;;
39156;SDS011;24889;42.424;25.604;2022-09-09T05:46:05;7.32;;;3.90;;
39156;SDS011;24889;42.424;25.604;2022-09-09T05:48:39;8.65;;;4.03;;
39156;SDS011;24889;42.424;25.604;2022-09-09T05:51:07;12.43;;;4.07;;
39156;SDS011;24889;42.424;25.604;2022-09-09T05:53:34;10.68;;;4.60;;
39156;SDS011;24889;42.424;25.604;2022-09-09T05:58:26;8.95;;;3.75;;
39156;SDS011;24889;42.424;25.604;2022-09-09T06:03:19;9.20;;;4.20;;
39156;SDS011;24889;42.424;25.604;2022-09-09T06:05:56;9.30;;;3.92;;
39156;SDS011;24889;42.424;25.604;2022-09-09T06:08:22;8.73;;;4.97;;
39156;SDS011;24889;42.424;25.604;2022-09-09T06:13:13;9.80;;;3.85;;
39156;SDS011;24889;42.424;25.604;2022-09-09T06:18:05;9.85;;;3.55;;
39156;SDS011;24889;42.424;25.604;2022-09-09T06:25:22;4.80;;;2.80;;
39156;SDS011;24889;42.424;25.604;2022-09-09T06:30:14;13.98;;;4.50;;
39156;SDS011;24889;42.424;25.604;2022-09-09T06:32:42;14.57;;;4.85;;
39156;SDS011;24889;42.424;25.604;2022-09-09T06:37:33;13.30;;;6.50;;
39156;SDS011;24889;42.424;25.604;2022-09-09T06:42:24;16.77;;;5.40;;
39156;SDS011;24889;42.424;25.604;2022-09-09T06:49:40;9.60;;;2.80;;
39156;SDS011;24889;42.424;25.604;2022-09-09T06:52:05;9.80;;;3.33;;
39156;SDS011;24889;42.424;25.604;2022-09-09T06:54:31;6.53;;;2.63;;
39156;SDS011;24889;42.424;25.604;2022-09-09T06:56:56;4.50;;;2.55;;
39156;SDS011;24889;42.424;25.604;2022-09-09T07:01:47;6.45;;;2.60;;
39156;SDS011;24889;42.424;25.604;2022-09-09T07:06:39;5.07;;;2.28;;
39156;SDS011;24889;42.424;25.604;2022-09-09T07:09:08;5.82;;;2.50;;
39156;SDS011;24889;42.424;25.604;2022-09-09T07:14:06;11.07;;;2.97;;
39156;SDS011;24889;42.424;25.604;2022-09-09T07:16:32;6.05;;;2.70;;
39156;SDS011;24889;42.424;25.604;2022-09-09T07:18:59;7.47;;;2.33;;
39156;SDS011;24889;42.424;25.604;2022-09-09T07:21:26;4.50;;;2.38;;
39156;SDS011;24889;42.424;25.604;2022-09-09T07:23:52;4.10;;;2.40;;
39156;SDS011;24889;42.424;25.604;2022-09-09T07:26:20;6.63;;;2.20;;
39156;SDS011;24889;42.424;25.604;2022-09-09T07:28:47;3.88;;;2.47;;
39156;SDS011;24889;42.424;25.604;2022-09-09T07:31:17;4.18;;;2.17;;
39156;SDS011;24889;42.424;25.604;2022-09-09T07:33:45;9.13;;;2.33;;
39156;SDS011;24889;42.424;25.604;2022-09-09T07:36:13;4.78;;;2.40;;
39156;SDS011;24889;42.424;25.604;2022-09-09T07:38:41;4.03;;;2.40;;
39156;SDS011;24889;42.424;25.604;2022-09-09T07:41:10;6.57;;;3.10;;
39156;SDS011;24889;42.424;25.604;2022-09-09T07:43:42;5.90;;;2.97;;
39156;SDS011;24889;42.424;25.604;2022-09-09T07:46:09;11.93;;;3.42;;
39156;SDS011;24889;42.424;25.604;2022-09-09T07:48:37;7.75;;;3.05;;
39156;SDS011;24889;42.424;25.604;2022-09-09T07:51:07;8.13;;;2.10;;
39156;SDS011;24889;42.424;25.604;2022-09-09T07:53:35;11.82;;;2.50;;
39156;SDS011;24889;42.424;25.604;2022-09-09T07:58:30;12.43;;;3.35;;
39156;SDS011;24889;42.424;25.604;2022-09-09T08:03:22;5.32;;;2.90;;
39156;SDS011;24889;42.424;25.604;2022-09-09T08:08:14;8.57;;;3.00;;
39156;SDS011;24889;42.424;25.604;2022-09-09T08:13:05;3.80;;;2.35;;
39156;SDS011;24889;42.424;25.604;2022-09-09T08:17:57;6.63;;;2.75;;
39156;SDS011;24889;42.424;25.604;2022-09-09T08:22:48;6.57;;;2.83;;
39156;SDS011;24889;42.424;25.604;2022-09-09T08:25:15;4.60;;;2.78;;
39156;SDS011;24889;42.424;25.604;2022-09-09T08:30:06;4.88;;;2.97;;
39156;SDS011;24889;42.424;25.604;2022-09-09T08:32:32;5.85;;;3.33;;
39156;SDS011;24889;42.424;25.604;2022-09-09T08:39:48;8.98;;;3.17;;
39156;SDS011;24889;42.424;25.604;2022-09-09T08:50:25;8.40;;;2.90;;
39156;SDS011;24889;42.424;25.604;2022-09-09T08:58:14;4.60;;;2.60;;
39156;SDS011;24889;42.424;25.604;2022-09-09T09:09:02;8.30;;;2.63;;
39156;SDS011;24889;42.424;25.604;2022-09-09T09:11:56;6.85;;;3.08;;
39156;SDS011;24889;42.424;25.604;2022-09-09T09:14:26;5.10;;;3.15;;
39156;SDS011;24889;42.424;25.604;2022-09-09T09:16:56;4.82;;;2.90;;
39156;SDS011;24889;42.424;25.604;2022-09-09T09:19:22;7.20;;;3.05;;
39156;SDS011;24889;42.424;25.604;2022-09-09T09:27:15;9.80;;;3.33;;
39156;SDS011;24889;42.424;25.604;2022-09-09T09:32:16;5.80;;;3.15;;
39156;SDS011;24889;42.424;25.604;2022-09-09T09:34:57;5.78;;;3.63;;
39156;SDS011;24889;42.424;25.604;2022-09-09T09:37:28;5.45;;;3.03;;
39156;SDS011;24889;42.424;25.604;2022-09-09T09:39:55;5.78;;;3.47;;
39156;SDS011;24889;42.424;25.604;2022-09-09T09:44:47;8.68;;;3.40;;
39156;SDS011;24889;42.424;25.604;2022-09-09T09:49:55;6.15;;;2.72;;
39156;SDS011;24889;42.424;25.604;2022-09-09T09:52:27;9.30;;;2.97;;
39156;SDS011;24889;42.424;25.604;2022-09-09T09:54:54;4.97;;;3.10;;
39156;SDS011;24889;42.424;25.604;2022-09-09T09:57:23;6.68;;;3.38;;
39156;SDS011;24889;42.424;25.604;2022-09-09T10:02:39;8.68;;;3.75;;
39156;SDS011;24889;42.424;25.604;2022-09-09T10:05:21;10.18;;;3.67;;
39156;SDS011;24889;42.424;25.604;2022-09-09T10:08:05;9.63;;;3.05;;
39156;SDS011;24889;42.424;25.604;2022-09-09T10:18:46;5.05;;;3.03;;
39156;SDS011;24889;42.424;25.604;2022-09-09T10:24:08;6.38;;;3.35;;
39156;SDS011;24889;42.424;25.604;2022-09-09T10:27:07;8.23;;;3.60;;
39156;SDS011;24889;42.424;25.604;2022-09-09T10:35:36;6.15;;;2.72;;
39156;SDS011;24889;42.424;25.604;2022-09-09T10:38:14;6.47;;;3.03;;
39156;SDS011;24889;42.424;25.604;2022-09-09T10:43:30;7.10;;;3.15;;
39156;SDS011;24889;42.424;25.604;2022-09-09T10:46:11;7.97;;;3.30;;
39156;SDS011;24889;42.424;25.604;2022-09-09T10:49:01;10.00;;;3.20;;
39156;SDS011;24889;42.424;25.604;2022-09-09T10:57:23;4.57;;;3.45;;
39156;SDS011;24889;42.424;25.604;2022-09-09T11:00:17;5.78;;;2.80;;
39156;SDS011;24889;42.424;25.604;2022-09-09T11:02:45;6.28;;;2.97;;
39156;SDS011;24889;42.424;25.604;2022-09-09T11:10:45;6.95;;;3.33;;
39156;SDS011;24889;42.424;25.604;2022-09-09T11:16:00;5.30;;;3.40;;
39156;SDS011;24889;42.424;25.604;2022-09-09T11:18:46;5.70;;;3.08;;
39156;SDS011;24889;42.424;25.604;2022-09-09T11:21:20;5.22;;;3.30;;
39156;SDS011;24889;42.424;25.604;2022-09-09T11:24:21;5.20;;;3.08;;
39156;SDS011;24889;42.424;25.604;2022-09-09T11:26:46;6.28;;;3.35;;
39156;SDS011;24889;42.424;25.604;2022-09-09T11:40:46;6.53;;;3.20;;
39156;SDS011;24889;42.424;25.604;2022-09-09T11:43:30;5.72;;;3.22;;
39156;SDS011;24889;42.424;25.604;2022-09-09T11:45:59;5.55;;;3.30;;
39156;SDS011;24889;42.424;25.604;2022-09-09T11:51:10;4.45;;;3.17;;
39156;SDS011;24889;42.424;25.604;2022-09-09T11:53:47;5.80;;;3.40;;
39156;SDS011;24889;42.424;25.604;2022-09-09T11:56:26;7.00;;;3.50;;
39156;SDS011;24889;42.424;25.604;2022-09-09T12:01:37;7.65;;;3.60;;
39156;SDS011;24889;42.424;25.604;2022-09-09T12:06:44;4.30;;;3.58;;
39156;SDS011;24889;42.424;25.604;2022-09-09T12:09:18;9.82;;;3.88;;
39156;SDS011;24889;42.424;25.604;2022-09-09T12:11:49;8.88;;;3.28;;
39156;SDS011;24889;42.424;25.604;2022-09-09T12:14:21;8.25;;;3.38;;
39156;SDS011;24889;42.424;25.604;2022-09-09T12:17:08;4.80;;;3.55;;
39156;SDS011;24889;42.424;25.604;2022-09-09T12:28:20;6.75;;;3.65;;
39156;SDS011;24889;42.424;25.604;2022-09-09T12:33:50;5.15;;;3.65;;
39156;SDS011;24889;42.424;25.604;2022-09-09T12:36:18;5.32;;;3.75;;
39156;SDS011;24889;42.424;25.604;2022-09-09T12:38:46;8.95;;;3.25;;
39156;SDS011;24889;42.424;25.604;2022-09-09T12:41:32;5.38;;;3.42;;
39156;SDS011;24889;42.424;25.604;2022-09-09T12:44:04;9.68;;;3.70;;
39156;SDS011;24889;42.424;25.604;2022-09-09T12:52:07;7.15;;;4.15;;
39156;SDS011;24889;42.424;25.604;2022-09-09T12:54:48;7.43;;;3.75;;
39156;SDS011;24889;42.424;25.604;2022-09-09T12:57:17;5.53;;;3.85;;
39156;SDS011;24889;42.424;25.604;2022-09-09T13:02:23;3.97;;;3.30;;
39156;SDS011;24889;42.424;25.604;2022-09-09T13:04:51;5.35;;;3.60;;
39156;SDS011;24889;42.424;25.604;2022-09-09T13:07:19;5.15;;;3.55;;
39156;SDS011;24889;42.424;25.604;2022-09-09T13:09:47;7.22;;;5.88;;
39156;SDS011;24889;42.424;25.604;2022-09-09T13:12:21;6.82;;;4.20;;
39156;SDS011;24889;42.424;25.604;2022-09-09T13:14:48;6.82;;;3.72;;
39156;SDS011;24889;42.424;25.604;2022-09-09T13:17:23;3.85;;;3.40;;
39156;SDS011;24889;42.424;25.604;2022-09-09T13:19:51;8.88;;;3.60;;
39156;SDS011;24889;42.424;25.604;2022-09-09T13:25:00;4.88;;;3.58;;
39156;SDS011;24889;42.424;25.604;2022-09-09T13:27:29;7.20;;;3.95;;
39156;SDS011;24889;42.424;25.604;2022-09-09T13:29:56;7.80;;;3.53;;
39156;SDS011;24889;42.424;25.604;2022-09-09T13:32:23;8.65;;;3.45;;
39156;SDS011;24889;42.424;25.604;2022-09-09T13:34:59;7.05;;;3.88;;
39156;SDS011;24889;42.424;25.604;2022-09-09T13:37:32;6.53;;;3.72;;
39156;SDS011;24889;42.424;25.604;2022-09-09T13:40:01;5.05;;;3.40;;
39156;SDS011;24889;42.424;25.604;2022-09-09T13:42:31;4.88;;;3.35;;
39156;SDS011;24889;42.424;25.604;2022-09-09T13:45:02;7.35;;;3.53;;
39156;SDS011;24889;42.424;25.604;2022-09-09T13:47:32;5.15;;;3.53;;
39156;SDS011;24889;42.424;25.604;2022-09-09T13:50:21;5.03;;;3.70;;
39156;SDS011;24889;42.424;25.604;2022-09-09T13:52:46;7.20;;;4.15;;
39156;SDS011;24889;42.424;25.604;2022-09-09T13:55:16;7.93;;;4.00;;
39156;SDS011;24889;42.424;25.604;2022-09-09T13:57:52;8.65;;;3.90;;
39156;SDS011;24889;42.424;25.604;2022-09-09T14:00:22;8.50;;;4.35;;
39156;SDS011;24889;42.424;25.604;2022-09-09T14:02:49;5.90;;;4.97;;
39156;SDS011;24889;42.424;25.604;2022-09-09T14:05:15;6.78;;;3.95;;
39156;SDS011;24889;42.424;25.604;2022-09-09T14:07:42;7.28;;;3.90;;
39156;SDS011;24889;42.424;25.604;2022-09-09T14:10:08;4.40;;;3.25;;
39156;SDS011;24889;42.424;25.604;2022-09-09T14:12:35;8.52;;;4.22;;
39156;SDS011;24889;42.424;25.604;2022-09-09T14:15:01;9.07;;;3.55;;
39156;SDS011;24889;42.424;25.604;2022-09-09T14:17:28;7.85;;;3.25;;
39156;SDS011;24889;42.424;25.604;2022-09-09T14:19:55;6.95;;;3.17;;
39156;SDS011;24889;42.424;25.604;2022-09-09T14:22:21;7.93;;;4.15;;
39156;SDS011;24889;42.424;25.604;2022-09-09T14:24:47;4.93;;;3.28;;
39156;SDS011;24889;42.424;25.604;2022-09-09T14:27:14;7.43;;;3.70;;
39156;SDS011;24889;42.424;25.604;2022-09-09T14:29:40;14.60;;;4.80;;
39156;SDS011;24889;42.424;25.604;2022-09-09T14:32:06;9.63;;;3.88;;
39156;SDS011;24889;42.424;25.604;2022-09-09T14:34:31;10.20;;;4.40;;
39156;SDS011;24889;42.424;25.604;2022-09-09T14:37:00;6.85;;;3.42;;
39156;SDS011;24889;42.424;25.604;2022-09-09T14:39:25;8.05;;;4.15;;
39156;SDS011;24889;42.424;25.604;2022-09-09T14:41:51;9.45;;;3.72;;
39156;SDS011;24889;42.424;25.604;2022-09-09T14:44:17;11.52;;;3.97;;
39156;SDS011;24889;42.424;25.604;2022-09-09T14:46:43;8.57;;;3.92;;
39156;SDS011;24889;42.424;25.604;2022-09-09T14:49:09;10.95;;;5.22;;
39156;SDS011;24889;42.424;25.604;2022-09-09T14:51:37;7.82;;;3.75;;
39156;SDS011;24889;42.424;25.604;2022-09-09T14:54:03;6.25;;;3.45;;
39156;SDS011;24889;42.424;25.604;2022-09-09T14:56:30;8.48;;;3.17;;
39156;SDS011;24889;42.424;25.604;2022-09-09T14:58:59;8.43;;;3.30;;
39156;SDS011;24889;42.424;25.604;2022-09-09T15:01:26;6.97;;;3.40;;
39156;SDS011;24889;42.424;25.604;2022-09-09T15:03:53;6.20;;;3.17;;
39156;SDS011;24889;42.424;25.604;2022-09-09T15:06:24;6.93;;;3.90;;
39156;SDS011;24889;42.424;25.604;2022-09-09T15:08:52;8.88;;;4.05;;
39156;SDS011;24889;42.424;25.604;2022-09-09T15:11:18;6.97;;;3.83;;
39156;SDS011;24889;42.424;25.604;2022-09-09T15:13:45;9.05;;;3.33;;
39156;SDS011;24889;42.424;25.604;2022-09-09T15:16:15;7.13;;;3.63;;
39156;SDS011;24889;42.424;25.604;2022-09-09T15:18:42;7.75;;;4.22;;
39156;SDS011;24889;42.424;25.604;2022-09-09T15:21:10;6.35;;;3.92;;
39156;SDS011;24889;42.424;25.604;2022-09-09T15:23:44;10.02;;;4.60;;
39156;SDS011;24889;42.424;25.604;2022-09-09T15:26:10;12.57;;;5.40;;
39156;SDS011;24889;42.424;25.604;2022-09-09T15:28:37;10.07;;;5.22;;
39156;SDS011;24889;42.424;25.604;2022-09-09T15:33:34;11.68;;;5.38;;
39156;SDS011;24889;42.424;25.604;2022-09-09T15:36:23;9.40;;;4.63;;
39156;SDS011;24889;42.424;25.604;2022-09-09T15:38:49;10.27;;;4.90;;
39156;SDS011;24889;42.424;25.604;2022-09-09T15:41:15;16.02;;;5.65;;
39156;SDS011;24889;42.424;25.604;2022-09-09T15:43:43;13.50;;;6.40;;
39156;SDS011;24889;42.424;25.604;2022-09-09T15:48:41;18.80;;;10.05;;
39156;SDS011;24889;42.424;25.604;2022-09-09T15:51:09;27.15;;;14.90;;
39156;SDS011;24889;42.424;25.604;2022-09-09T15:53:36;25.58;;;13.30;;
39156;SDS011;24889;42.424;25.604;2022-09-09T15:56:07;17.55;;;11.10;;
39156;SDS011;24889;42.424;25.604;2022-09-09T15:58:33;19.23;;;10.15;;
39156;SDS011;24889;42.424;25.604;2022-09-09T16:01:07;20.00;;;10.40;;
39156;SDS011;24889;42.424;25.604;2022-09-09T16:03:35;16.02;;;9.00;;
39156;SDS011;24889;42.424;25.604;2022-09-09T16:06:04;13.75;;;8.55;;
39156;SDS011;24889;42.424;25.604;2022-09-09T16:08:31;16.80;;;8.13;;
39156;SDS011;24889;42.424;25.604;2022-09-09T16:11:03;17.23;;;6.45;;
39156;SDS011;24889;42.424;25.604;2022-09-09T16:13:32;12.20;;;5.55;;
39156;SDS011;24889;42.424;25.604;2022-09-09T16:15:58;13.38;;;5.00;;
39156;SDS011;24889;42.424;25.604;2022-09-09T16:23:18;11.55;;;5.03;;
39156;SDS011;24889;42.424;25.604;2022-09-09T16:28:17;14.88;;;5.13;;
39156;SDS011;24889;42.424;25.604;2022-09-09T16:33:08;35.70;;;24.83;;
39156;SDS011;24889;42.424;25.604;2022-09-09T16:35:35;33.25;;;23.15;;
39156;SDS011;24889;42.424;25.604;2022-09-09T16:38:03;29.45;;;23.40;;
39156;SDS011;24889;42.424;25.604;2022-09-09T16:42:55;12.20;;;6.10;;
39156;SDS011;24889;42.424;25.604;2022-09-09T16:47:47;12.60;;;5.68;;
39156;SDS011;24889;42.424;25.604;2022-09-09T16:50:13;14.82;;;6.30;;
39156;SDS011;24889;42.424;25.604;2022-09-09T16:55:04;10.57;;;5.80;;
39156;SDS011;24889;42.424;25.604;2022-09-09T16:59:56;14.32;;;4.88;;
39156;SDS011;24889;42.424;25.604;2022-09-09T17:02:24;13.57;;;4.72;;
39156;SDS011;24889;42.424;25.604;2022-09-09T17:07:15;10.40;;;4.80;;
39156;SDS011;24889;42.424;25.604;2022-09-09T17:12:07;22.17;;;5.55;;
39156;SDS011;24889;42.424;25.604;2022-09-09T17:16:58;15.05;;;5.55;;
39156;SDS011;24889;42.424;25.604;2022-09-09T17:19:25;16.13;;;5.57;;
39156;SDS011;24889;42.424;25.604;2022-09-09T17:24:17;12.55;;;5.00;;
39156;SDS011;24889;42.424;25.604;2022-09-09T17:29:08;14.18;;;6.00;;
39156;SDS011;24889;42.424;25.604;2022-09-09T17:31:33;13.00;;;5.85;;
39156;SDS011;24889;42.424;25.604;2022-09-09T17:33:59;15.60;;;5.28;;
39156;SDS011;24889;42.424;25.604;2022-09-09T17:36:27;9.93;;;5.20;;
39156;SDS011;24889;42.424;25.604;2022-09-09T17:38:55;11.93;;;5.78;;
39156;SDS011;24889;42.424;25.604;2022-09-09T17:43:50;10.00;;;4.53;;
39156;SDS011;24889;42.424;25.604;2022-09-09T17:46:20;10.32;;;4.80;;
39156;SDS011;24889;42.424;25.604;2022-09-09T17:48:51;10.95;;;5.38;;
39156;SDS011;24889;42.424;25.604;2022-09-09T17:51:21;11.70;;;5.50;;
39156;SDS011;24889;42.424;25.604;2022-09-09T17:53:50;12.90;;;6.10;;
39156;SDS011;24889;42.424;25.604;2022-09-09T17:56:18;13.25;;;6.00;;
39156;SDS011;24889;42.424;25.604;2022-09-09T17:58:46;11.85;;;6.43;;
39156;SDS011;24889;42.424;25.604;2022-09-09T18:01:17;14.98;;;5.95;;
39156;SDS011;24889;42.424;25.604;2022-09-09T18:03:45;8.45;;;5.10;;
39156;SDS011;24889;42.424;25.604;2022-09-09T18:06:13;16.15;;;5.57;;
39156;SDS011;24889;42.424;25.604;2022-09-09T18:08:42;7.80;;;4.70;;
39156;SDS011;24889;42.424;25.604;2022-09-09T18:11:13;12.73;;;6.00;;
39156;SDS011;24889;42.424;25.604;2022-09-09T18:16:07;11.05;;;5.60;;
39156;SDS011;24889;42.424;25.604;2022-09-09T18:18:34;8.73;;;5.10;;
39156;SDS011;24889;42.424;25.604;2022-09-09T18:23:27;16.83;;;7.75;;
39156;SDS011;24889;42.424;25.604;2022-09-09T18:25:54;13.82;;;7.15;;
39156;SDS011;24889;42.424;25.604;2022-09-09T18:28:20;10.45;;;5.88;;
39156;SDS011;24889;42.424;25.604;2022-09-09T18:30:47;10.90;;;5.72;;
39156;SDS011;24889;42.424;25.604;2022-09-09T18:35:38;9.18;;;5.00;;
39156;SDS011;24889;42.424;25.604;2022-09-09T18:38:04;8.98;;;5.50;;
39156;SDS011;24889;42.424;25.604;2022-09-09T18:42:57;7.72;;;4.28;;
39156;SDS011;24889;42.424;25.604;2022-09-09T18:47:49;9.75;;;5.30;;
39156;SDS011;24889;42.424;25.604;2022-09-09T18:50:14;13.85;;;5.50;;
39156;SDS011;24889;42.424;25.604;2022-09-09T18:52:40;11.10;;;5.43;;
39156;SDS011;24889;42.424;25.604;2022-09-09T18:55:06;10.77;;;5.85;;
39156;SDS011;24889;42.424;25.604;2022-09-09T18:57:33;9.43;;;6.13;;
39156;SDS011;24889;42.424;25.604;2022-09-09T19:00:00;12.27;;;5.97;;
39156;SDS011;24889;42.424;25.604;2022-09-09T19:04:51;10.05;;;5.20;;
39156;SDS011;24889;42.424;25.604;2022-09-09T19:07:17;8.80;;;4.53;;
39156;SDS011;24889;42.424;25.604;2022-09-09T19:12:08;11.23;;;5.25;;
39156;SDS011;24889;42.424;25.604;2022-09-09T19:17:00;7.28;;;4.97;;
39156;SDS011;24889;42.424;25.604;2022-09-09T19:19:27;9.88;;;5.20;;
39156;SDS011;24889;42.424;25.604;2022-09-09T19:21:54;8.95;;;5.38;;
39156;SDS011;24889;42.424;25.604;2022-09-09T19:24:22;12.45;;;5.38;;
39156;SDS011;24889;42.424;25.604;2022-09-09T19:26:50;11.30;;;5.30;;
39156;SDS011;24889;42.424;25.604;2022-09-09T19:29:18;9.52;;;5.32;;